DGAA - FKKD

Guest
Details From DGAA - Accra_Kotoka_Intl
To FKKD - Douala
Flight Number -
Tags decoded
Created
Modified
Stats Distance 634 nm / 1,175 km
Max Altitude 0 ft / 0 m
Waypoints 4
Social Downloads 0
Likes 0
Share VATSIM

Download

Looking for another format? Having issues loading an existing format? Contact us
Advertisement - Login to hide

Notes

Requested: DGAA ADA UA609 LAG UR984 TI FKKD Unmatched points: UA609 UR984

Route

DGAA LAG TI FKKD

ID Type Via Altitude Latitude Longitude Leg Dist Tot Dist Heading (true) Name
O DGAA APT - 0 ft / 0 m 5.60258˚ -0.16760˚ - 0 nm - Accra_Kotoka_Intl
LAG VOR - 0 ft / 0 m 6.70846˚ 3.32745˚ 219 nm 219 nm 72° / 73° LAGOS VOR-DME
TI NDB - 0 ft / 0 m 4.08764˚ 9.35589˚ 393 nm 612 nm 113° / 114° TIKO NDB
O FKKD APT - 0 ft / 0 m 4.01421˚ 9.71654˚ 22 nm 634 nm 102° / 102° Douala

Altitude Profile

Weather

Temperature
Clouds and Precipitation
Forecast for 2016-12-10 12:00 UTC. Updated an hour ago
Winds

DGAA

Details ICAO DGAA (ACC)
Name Accra_Kotoka_Intl
Region Ghana
Timezone Africa/Accra (UTC+0.0)
Stats Elevation 204 ft / 62 m (AMSL)
Location 5.602578° -0.167602°
Runways 1
Magnetic Variation 3.527° W

METAR

DGAA 101200Z 18009KT 9999 BKN025 31/25 Q1010 NOSIG

Decode

TAF

TAF DGAA 101000Z 1012/1118 18010KT 9999 SCT020 TEMPO 1015/1019 FEW030CB BECMG 1102/1104 27005KT FEW016 TEMPO 1105/1109 8000 NSC

Decode

Departure Runways

ID Width Length Bearing (true) Bearing (mag) Surface Threshold Offset Overrun Length
03 200 ft / 61 m 11,176 ft / 3,406 m 22.00° 25.53° Asphalt 0 ft / 0 m 351 ft / 107 m
21 200 ft / 61 m 11,176 ft / 3,406 m 202.00° 205.53° Asphalt 1,355 ft / 413 m 0 ft / 0 m

FKKD

Details ICAO FKKD (DLA)
Name Douala
Region Cameroon
Timezone Africa/Douala (UTC+1.0)
Stats Elevation 33 ft / 10 m (AMSL)
Location 4.014208° 9.716538°
Runways 2
Magnetic Variation 1.224° W

METAR

FKKD 101200Z 27006KT 9999 FEW010 BKN016TCU FEW020CB 32/25 Q1009 NOSIG

Decode

TAF

TAF FKKD 101100Z 1012/1118 26007KT 9999 BKN016 FEW020CB PROB30 TEMPO 1014/1022 TS BECMG 1020/1022 BKN013 FEW016CB TEMPO 1104/1107 2500 BR

Decode

Destination Runways

ID Width Length Bearing (true) Bearing (mag) Surface Threshold Offset Overrun Length
03 147 ft / 45 m 8,210 ft / 2,502 m 27.00° 28.22° Asphalt 350 ft / 107 m 0 ft / 0 m
12 148 ft / 45 m 9,363 ft / 2,854 m 116.94° 118.16° Asphalt 0 ft / 0 m 164 ft / 50 m
21 147 ft / 45 m 8,210 ft / 2,502 m 207.00° 208.22° Asphalt 350 ft / 107 m 0 ft / 0 m
30 148 ft / 45 m 9,363 ft / 2,854 m 296.94° 298.16° Asphalt 0 ft / 0 m 164 ft / 50 m

Approach Navaids

Runway Type Ident Frequency Range Bearing (true) Bearing (mag) Slope Elevation
30 Localiser DL 110.30 MHz 18 nm / 33 km 297.68° 298.90° - 25 ft / 8 m (AMSL)
30 Glidescope DL 110.30 MHz 10 nm / 19 km 296.94° 298.16° 3.00° 33 ft / 10 m (AMSL)
30 DME DL 110.30 MHz 18 nm / 33 km - - - 33 ft / 10 m (AMSL)

Popular Alternatives